Time;durP1;ratioP1;P1;durP2;ratioP2;P2;SDS_P1;SDS_P2;PMS_P1;PMS_P2;Temp;Humidity;BMP_temperature;BMP_pressure;BME280_temperature;BME280_humidity;BME280_pressure;Samples;Min_cycle;Max_cycle;Signal;HPM_P1;HPM_P2
2022/10/08 00:01:51;;;;;;;;;;;;;;;12.38;100.00;98593.20;1666231;83;20251;-85
2022/10/08 00:04:17;;;;;;;;;;;;;;;12.37;100.00;98592.02;1683208;83;20269;-84
2022/10/08 00:06:43;;;;;;;;;;;;;;;12.29;100.00;98595.20;1664480;84;21764;-84
2022/10/08 00:09:09;;;;;;;;;;;;;;;12.37;100.00;98584.98;1700348;82;20340;-84
2022/10/08 00:11:42;;;;;;;;;;;;;;;12.44;100.00;98582.24;1708782;81;20506;-84
2022/10/08 00:14:13;;;;;;;;;;;;;;;12.51;100.00;98582.16;1673405;83;24641;-86
2022/10/08 00:16:38;;;;;;;;;;;;;;;12.49;100.00;98574.86;1694593;83;22209;-86
2022/10/08 00:19:11;;;;;;;;;;;;;;;12.57;100.00;98579.55;1670658;83;26249;-88
2022/10/08 00:21:37;;;;;;;;;;;;;;;12.73;100.00;98572.64;1671802;82;24632;-88
2022/10/08 00:24:05;;;;;;;;;;;;;;;12.84;100.00;98581.38;1693214;82;20519;-88
2022/10/08 00:26:32;;;;;;;;;;;;;;;12.96;100.00;98573.88;1699859;82;24550;-83
2022/10/08 00:29:00;;;;;;;;;;;;;;;13.03;100.00;98569.47;1677559;82;22236;-83
2022/10/08 00:31:28;;;;;;;;;;;;;;;12.95;100.00;98578.77;1671358;83;26103;-84
2022/10/08 00:33:55;;;;;;;;;;;;;;;13.02;100.00;98571.25;1695708;82;25354;-84
2022/10/08 00:36:22;;;;;;;;;;;;;;;13.07;100.00;98569.58;1698777;82;20289;-89
2022/10/08 00:38:48;;;;;;;;;;;;;;;13.09;100.00;98568.99;1682806;82;24621;-89
2022/10/08 00:41:19;;;;;;;;;;;;;;;13.09;100.00;98575.05;1681350;83;22728;-88
2022/10/08 00:43:53;;;;;;;;;;;;;;;13.08;100.00;98566.00;1679611;81;26243;-89
2022/10/08 00:46:27;;;;;;;;;;;;;;;13.04;100.00;98571.14;1680957;84;24655;-90
2022/10/08 00:49:10;;;;;;;;;;;;;;;13.09;100.00;98565.86;1687101;82;20224;-90
2022/10/08 00:51:37;;;;;;;;;;;;;;;13.14;100.00;98556.36;1689027;83;25431;-90
2022/10/08 00:54:04;;;;;;;;;;;;;;;13.07;100.00;98559.06;1682696;83;22091;-91
2022/10/08 00:56:35;;;;;;;;;;;;;;;13.00;100.00;98558.23;1686240;81;26982;-90
2022/10/08 00:59:01;;;;;;;;;;;;;;;12.99;100.00;98556.55;1682703;84;24621;-90
2022/10/08 01:01:30;;;;;;;;;;;;;;;13.01;100.00;98553.81;1679582;83;20161;-87
2022/10/08 01:03:58;;;;;;;;;;;;;;;13.02;100.00;98553.34;1665756;84;24571;-90
2022/10/08 01:06:26;;;;;;;;;;;;;;;13.06;100.00;98546.88;1696214;82;22934;-88
2022/10/08 01:09:11;;;;;;;;;;;;;;;13.07;100.00;98544.62;1658660;84;26103;-89
2022/10/08 01:11:45;;;;;;;;;;;;;;;13.09;100.00;98543.52;1665347;83;24530;-86
2022/10/08 01:14:25;;;;;;;;;;;;;;;13.11;100.00;98544.73;1693280;83;20384;-90
2022/10/08 01:17:10;;;;;;;;;;;;;;;13.11;100.00;98547.36;1679466;83;24535;-90
2022/10/08 01:19:37;;;;;;;;;;;;;;;13.10;100.00;98545.67;1690232;82;22042;-89
2022/10/08 01:22:22;;;;;;;;;;;;;;;13.05;100.00;98537.32;1691259;81;26257;-90
2022/10/08 01:27:49;;;;;;;;;;;;;;;13.03;100.00;98535.31;1665304;83;20355;-87
2022/10/08 01:30:18;;;;;;;;;;;;;;;13.02;100.00;98533.63;1704339;81;20560;-86
2022/10/08 01:32:46;;;;;;;;;;;;;;;12.97;100.00;98533.52;1662171;83;22091;-89
2022/10/08 01:35:32;;;;;;;;;;;;;;;12.95;100.00;98527.54;1677743;83;26775;-90
2022/10/08 01:38:00;;;;;;;;;;;;;;;12.94;100.00;98526.34;1662205;85;24518;-89
2022/10/08 01:40:28;;;;;;;;;;;;;;;12.95;100.00;98526.70;1672415;83;20151;-90
2022/10/08 01:42:55;;;;;;;;;;;;;;;12.93;100.00;98520.25;1658743;84;24466;-90
2022/10/08 01:45:25;;;;;;;;;;;;;;;12.92;100.00;98519.91;1696455;82;21947;-86
2022/10/08 01:47:57;;;;;;;;;;;;;;;12.90;100.00;98517.88;1675119;82;26197;-83
2022/10/08 01:50:27;;;;;;;;;;;;;;;12.90;100.00;98511.78;1684907;82;24657;-84
2022/10/08 01:52:55;;;;;;;;;;;;;;;12.93;100.00;98514.16;1690532;82;20217;-89
2022/10/08 01:55:23;;;;;;;;;;;;;;;12.90;100.00;98515.25;1696361;82;24684;-90
2022/10/08 01:57:50;;;;;;;;;;;;;;;12.88;100.00;98511.05;1696062;83;21995;-89
2022/10/08 02:00:16;;;;;;;;;;;;;;;12.81;100.00;98514.66;1675271;83;26785;-85
2022/10/08 02:02:42;;;;;;;;;;;;;;;12.80;100.00;98519.55;1690076;82;25350;-83
2022/10/08 02:05:10;;;;;;;;;;;;;;;12.80;100.00;98516.08;1644684;84;20281;-85
2022/10/08 02:07:37;;;;;;;;;;;;;;;12.74;100.00;98516.55;1688833;82;25438;-86
2022/10/08 02:10:08;;;;;;;;;;;;;;;12.69;100.00;98515.59;1661255;83;22709;-87
2022/10/08 02:12:35;;;;;;;;;;;;;;;12.66;100.00;98514.50;1666546;83;26033;-86
2022/10/08 02:15:03;;;;;;;;;;;;;;;12.61;100.00;98513.19;1689465;83;24605;-90
2022/10/08 02:17:57;;;;;;;;;;;;;;;12.63;100.00;98509.50;1726104;81;20188;-90
2022/10/08 02:20:31;;;;;;;;;;;;;;;12.65;100.00;98510.23;1724143;81;24630;-90
2022/10/08 02:23:10;;;;;;;;;;;;;;;12.70;100.00;98509.88;1719058;80;21984;-91
2022/10/08 02:28:33;;;;;;;;;;;;;;;12.68;100.00;98507.36;1713165;80;24398;-90
2022/10/08 02:31:13;;;;;;;;;;;;;;;12.64;100.00;98511.19;1714013;81;20197;-87
2022/10/08 02:33:40;;;;;;;;;;;;;;;12.63;100.00;98514.75;1725713;80;24623;-87
2022/10/08 02:36:07;;;;;;;;;;;;;;;12.59;100.00;98515.95;1723562;80;22161;-89
2022/10/08 02:38:38;;;;;;;;;;;;;;;12.61;100.00;98515.81;1728656;81;25668;-87
2022/10/08 02:41:06;;;;;;;;;;;;;;;12.54;100.00;98511.53;1685377;83;25307;-87
2022/10/08 02:43:37;;;;;;;;;;;;;;;12.50;100.00;98508.28;1674062;84;20276;-85
2022/10/08 02:46:06;;;;;;;;;;;;;;;12.49;100.00;98510.55;1659558;83;24708;-85
2022/10/08 02:48:33;;;;;;;;;;;;;;;12.42;100.00;98510.67;1708363;82;22552;-90
2022/10/08 02:51:04;;;;;;;;;;;;;;;12.28;100.00;98512.18;1694789;82;26166;-85
2022/10/08 02:53:36;;;;;;;;;;;;;;;12.24;100.00;98509.91;1651716;84;24408;-85
2022/10/08 02:56:04;;;;;;;;;;;;;;;12.11;100.00;98509.98;1697229;82;20258;-84
2022/10/08 02:58:30;;;;;;;;;;;;;;;12.00;100.00;98507.35;1694977;82;24600;-84
2022/10/08 03:01:10;;;;;;;;;;;;;;;11.92;100.00;98506.59;1687761;82;22089;-84
2022/10/08 03:03:42;;;;;;;;;;;;;;;12.00;100.00;98509.97;1700504;82;26212;-84
2022/10/08 03:06:08;;;;;;;;;;;;;;;12.04;100.00;98506.16;1688855;82;24543;-85
2022/10/08 03:08:36;;;;;;;;;;;;;;;12.07;100.00;98504.61;1683482;82;20515;-84
2022/10/08 03:11:05;;;;;;;;;;;;;;;12.08;100.00;98502.35;1683524;82;24673;-87
2022/10/08 03:13:39;;;;;;;;;;;;;;;12.05;100.00;98500.81;1675293;82;22250;-87
2022/10/08 03:16:07;;;;;;;;;;;;;;;12.15;100.00;98500.95;1689691;82;26748;-88
2022/10/08 03:18:40;;;;;;;;;;;;;;;12.17;100.00;98501.66;1683405;82;24637;-88
2022/10/08 03:21:08;;;;;;;;;;;;;;;12.11;100.00;98498.17;1667164;83;20349;-88
2022/10/08 03:23:33;;;;;;;;;;;;;;;12.19;100.00;98505.01;1727484;80;24643;-89
2022/10/08 03:25:59;;;;;;;;;;;;;;;12.21;100.00;98507.05;1726827;80;20820;-88
2022/10/08 03:28:25;;;;;;;;;;;;;;;12.24;100.00;98500.72;1716731;81;20395;-88
2022/10/08 03:30:51;;;;;;;;;;;;;;;12.14;100.00;98501.42;1708159;81;20870;-89
2022/10/08 03:33:16;;;;;;;;;;;;;;;12.10;100.00;98503.92;1716893;80;20280;-89
2022/10/08 03:35:43;;;;;;;;;;;;;;;12.11;100.00;98496.86;1722474;80;20307;-89
2022/10/08 03:38:09;;;;;;;;;;;;;;;12.09;100.00;98501.41;1731413;81;21974;-88
2022/10/08 03:40:35;;;;;;;;;;;;;;;12.06;100.00;98500.31;1717523;80;21176;-85
2022/10/08 03:43:00;;;;;;;;;;;;;;;12.09;100.00;98497.47;1717731;80;20379;-85
2022/10/08 03:45:26;;;;;;;;;;;;;;;12.05;100.00;98498.66;1713260;80;20909;-84
2022/10/08 03:47:52;;;;;;;;;;;;;;;12.00;100.00;98498.17;1719134;80;20374;-84
2022/10/08 03:50:21;;;;;;;;;;;;;;;11.96;100.00;98500.16;1728626;80;23648;-84
2022/10/08 03:52:47;;;;;;;;;;;;;;;12.03;100.00;98503.17;1733965;80;21585;-87
2022/10/08 03:55:12;;;;;;;;;;;;;;;12.07;100.00;98495.42;1723167;80;20274;-87
2022/10/08 03:57:38;;;;;;;;;;;;;;;12.04;100.00;98495.67;1728386;80;20420;-87
2022/10/08 04:00:05;;;;;;;;;;;;;;;12.02;100.00;98497.09;1724428;80;20332;-86
2022/10/08 04:02:32;;;;;;;;;;;;;;;11.94;100.00;98499.46;1647090;84;20164;-87
2022/10/08 04:04:58;;;;;;;;;;;;;;;11.90;100.00;98491.91;1650982;83;21804;-88
2022/10/08 04:07:24;;;;;;;;;;;;;;;11.81;100.00;98491.29;1682500;82;20216;-88
2022/10/08 04:09:53;;;;;;;;;;;;;;;11.80;100.00;98490.92;1692493;82;20267;-89
2022/10/08 04:12:18;;;;;;;;;;;;;;;11.77;100.00;98490.69;1678782;82;24596;-89
2022/10/08 04:14:44;;;;;;;;;;;;;;;11.78;100.00;98489.75;1687619;82;20280;-89
2022/10/08 04:17:10;;;;;;;;;;;;;;;11.82;100.00;98496.43;1679278;82;21931;-89
2022/10/08 04:19:36;;;;;;;;;;;;;;;11.81;100.00;98493.91;1691307;82;20293;-89
2022/10/08 04:22:12;;;;;;;;;;;;;;;11.81;100.00;98494.75;1656446;84;20306;-89
2022/10/08 04:24:40;;;;;;;;;;;;;;;11.80;100.00;98498.31;1667458;84;25275;-89
2022/10/08 04:27:15;;;;;;;;;;;;;;;11.90;100.00;98496.68;1725676;81;22218;-90
2022/10/08 04:29:41;;;;;;;;;;;;;;;11.90;100.00;98490.59;1716896;82;26267;-90
2022/10/08 04:32:07;;;;;;;;;;;;;;;11.96;100.00;98490.14;1722477;80;24404;-90
2022/10/08 04:34:33;;;;;;;;;;;;;;;11.90;100.00;98489.28;1718991;81;20231;-90
2022/10/08 04:36:59;;;;;;;;;;;;;;;11.90;100.00;98486.66;1725964;80;20349;-90
2022/10/08 04:39:46;;;;;;;;;;;;;;;11.85;100.00;98491.41;1717024;81;20818;-91
2022/10/08 04:42:14;;;;;;;;;;;;;;;11.80;100.00;98489.61;1713122;80;26000;-91
2022/10/08 04:44:40;;;;;;;;;;;;;;;11.78;100.00;98485.81;1722029;80;24466;-86
2022/10/08 04:47:09;;;;;;;;;;;;;;;11.87;100.00;98485.13;1728052;80;20243;-87
2022/10/08 04:49:35;;;;;;;;;;;;;;;11.98;100.00;98484.33;1713844;80;24638;-87
2022/10/08 04:52:02;;;;;;;;;;;;;;;12.07;100.00;98475.28;1716420;81;20224;-87
2022/10/08 04:54:28;;;;;;;;;;;;;;;12.13;100.00;98474.83;1724936;80;26621;-87
2022/10/08 04:56:54;;;;;;;;;;;;;;;12.21;100.00;98469.48;1724080;81;24422;-86
2022/10/08 04:59:20;;;;;;;;;;;;;;;12.25;100.00;98469.60;1703254;81;20158;-86
2022/10/08 05:01:46;;;;;;;;;;;;;;;12.32;100.00;98466.88;1714892;81;21608;-87
2022/10/08 05:04:11;;;;;;;;;;;;;;;12.36;100.00;98471.77;1690426;81;20215;-88
2022/10/08 05:06:37;;;;;;;;;;;;;;;12.35;100.00;98475.34;1664720;83;21172;-87
2022/10/08 05:09:03;;;;;;;;;;;;;;;12.40;100.00;98469.73;1676303;83;20246;-89
2022/10/08 05:11:30;;;;;;;;;;;;;;;12.41;100.00;98467.48;1680739;83;20220;-89
2022/10/08 05:13:58;;;;;;;;;;;;;;;12.44;100.00;98468.06;1655184;83;25246;-89
2022/10/08 05:16:26;;;;;;;;;;;;;;;12.42;100.00;98471.78;1728167;81;22106;-90
2022/10/08 05:18:52;;;;;;;;;;;;;;;12.38;100.00;98475.59;1731541;81;26230;-90
2022/10/08 05:21:20;;;;;;;;;;;;;;;12.34;100.00;98474.14;1726305;80;24614;-89
2022/10/08 05:23:45;;;;;;;;;;;;;;;12.36;100.00;98472.25;1726889;80;20537;-89
2022/10/08 05:26:27;;;;;;;;;;;;;;;12.35;100.00;98470.56;1721893;81;20303;-91
2022/10/08 05:29:00;;;;;;;;;;;;;;;12.28;100.00;98469.36;1691043;83;22279;-90
2022/10/08 05:31:27;;;;;;;;;;;;;;;12.08;100.00;98465.16;1676419;83;26143;-90
2022/10/08 05:34:11;;;;;;;;;;;;;;;11.89;100.00;98472.71;1685642;82;24376;-91
2022/10/08 05:36:43;;;;;;;;;;;;;;;11.74;100.00;98485.66;1696735;82;20215;-88
2022/10/08 05:39:09;;;;;;;;;;;;;;;11.66;100.00;98484.06;1699757;82;20323;-89
2022/10/08 05:41:36;;;;;;;;;;;;;;;11.56;100.00;98485.21;1680225;82;22010;-89
2022/10/08 05:44:06;;;;;;;;;;;;;;;11.40;100.00;98487.24;1691559;82;26021;-89
2022/10/08 05:46:34;;;;;;;;;;;;;;;11.32;100.00;98489.12;1683706;82;24442;-89
2022/10/08 05:49:00;;;;;;;;;;;;;;;11.36;100.00;98488.42;1692985;82;20338;-85
2022/10/08 05:51:37;;;;;;;;;;;;;;;11.44;100.00;98493.95;1699267;82;24522;-89
2022/10/08 05:54:03;;;;;;;;;;;;;;;11.51;100.00;98497.78;1703522;81;22040;-87
2022/10/08 05:56:30;;;;;;;;;;;;;;;11.58;100.00;98505.58;1684818;82;21052;-86
2022/10/08 05:58:57;;;;;;;;;;;;;;;11.54;100.00;98498.05;1687443;82;24455;-88
2022/10/08 06:01:24;;;;;;;;;;;;;;;11.46;100.00;98509.08;1673844;82;20566;-84
2022/10/08 06:03:55;;;;;;;;;;;;;;;11.43;100.00;98508.47;1692489;82;25373;-86
2022/10/08 06:06:25;;;;;;;;;;;;;;;11.35;100.00;98508.20;1659813;85;22024;-86
2022/10/08 06:08:53;;;;;;;;;;;;;;;11.28;100.00;98517.80;1660307;84;26409;-88
2022/10/08 06:11:19;;;;;;;;;;;;;;;11.25;100.00;98510.62;1685196;82;23984;-88
2022/10/08 06:13:45;;;;;;;;;;;;;;;11.35;100.00;98512.94;1696904;82;20423;-83
2022/10/08 06:16:11;;;;;;;;;;;;;;;11.39;100.00;98503.09;1683933;82;24610;-84
2022/10/08 06:18:38;;;;;;;;;;;;;;;11.49;100.00;98510.66;1702046;82;21972;-87
2022/10/08 06:21:06;;;;;;;;;;;;;;;11.64;100.00;98510.84;1656376;83;26039;-87
2022/10/08 06:23:32;;;;;;;;;;;;;;;11.77;100.00;98511.66;1681433;82;24354;-90
2022/10/08 06:26:03;;;;;;;;;;;;;;;11.84;100.00;98512.06;1677683;83;20514;-89
2022/10/08 06:28:29;;;;;;;;;;;;;;;11.89;100.00;98513.36;1686949;83;24564;-89
2022/10/08 06:30:54;;;;;;;;;;;;;;;12.03;100.00;98507.95;1671638;84;20309;-89
2022/10/08 06:33:21;;;;;;;;;;;;;;;12.13;100.00;98506.78;1690483;83;21066;-90
2022/10/08 06:35:47;;;;;;;;;;;;;;;12.20;100.00;98510.62;1659239;83;24434;-84
2022/10/08 06:38:13;;;;;;;;;;;;;;;12.28;100.00;98504.78;1702469;82;20274;-84
2022/10/08 06:40:43;;;;;;;;;;;;;;;12.34;100.00;98508.25;1698458;82;20232;-84
2022/10/08 06:43:14;;;;;;;;;;;;;;;12.40;100.00;98507.80;1691395;83;21863;-84
2022/10/08 06:45:41;;;;;;;;;;;;;;;12.42;100.00;98501.96;1683951;82;26075;-84
2022/10/08 06:48:07;;;;;;;;;;;;;;;12.49;100.00;98505.80;1697891;82;24653;-85
2022/10/08 06:50:33;;;;;;;;;;;;;;;12.55;100.00;98502.67;1690993;82;20206;-85
2022/10/08 06:52:59;;;;;;;;;;;;;;;12.62;100.00;98506.52;1672591;82;24531;-84
2022/10/08 06:55:25;;;;;;;;;;;;;;;12.72;100.00;98507.47;1690369;82;20227;-85
2022/10/08 06:57:56;;;;;;;;;;;;;;;12.83;100.00;98502.22;1686864;82;20932;-84
2022/10/08 07:00:23;;;;;;;;;;;;;;;12.92;100.00;98502.00;1661893;83;24469;-85
2022/10/08 07:02:48;;;;;;;;;;;;;;;13.02;100.00;98500.80;1662606;83;20561;-89
2022/10/08 07:05:14;;;;;;;;;;;;;;;13.14;100.00;98499.39;1677480;83;20199;-89
2022/10/08 07:07:40;;;;;;;;;;;;;;;13.26;100.00;98499.70;1682897;82;20251;-89
2022/10/08 07:10:06;;;;;;;;;;;;;;;13.38;100.00;98494.79;1701419;81;21154;-88
2022/10/08 07:12:32;;;;;;;;;;;;;;;13.50;100.00;98500.86;1681562;82;24440;-87
2022/10/08 07:14:58;;;;;;;;;;;;;;;13.59;100.00;98495.32;1703595;82;20298;-86
2022/10/08 07:17:27;;;;;;;;;;;;;;;13.71;100.00;98500.43;1702239;83;24632;-86
2022/10/08 07:19:53;;;;;;;;;;;;;;;13.83;100.00;98495.97;1686825;82;22105;-85
2022/10/08 07:22:19;;;;;;;;;;;;;;;13.93;100.00;98494.25;1687670;82;26080;-89
2022/10/08 07:24:53;;;;;;;;;;;;;;;14.01;100.00;98497.57;1691513;82;20293;-89
2022/10/08 07:27:20;;;;;;;;;;;;;;;14.13;100.00;98496.53;1728453;81;20433;-89
2022/10/08 07:29:46;;;;;;;;;;;;;;;14.23;100.00;98496.14;1728553;79;24709;-89
2022/10/08 07:32:11;;;;;;;;;;;;;;;14.33;100.00;98498.34;1724300;81;20378;-89
2022/10/08 07:34:43;;;;;;;;;;;;;;;14.41;100.00;98493.29;1727843;80;21016;-89
2022/10/08 07:37:09;;;;;;;;;;;;;;;14.45;100.00;98497.83;1722678;81;24615;-86
2022/10/08 07:39:35;;;;;;;;;;;;;;;14.53;100.00;98498.00;1724608;80;20280;-86
2022/10/08 07:42:01;;;;;;;;;;;;;;;14.62;100.00;98495.89;1719300;80;25233;-86
2022/10/08 07:44:27;;;;;;;;;;;;;;;14.73;100.00;98490.55;1729057;80;20796;-85
2022/10/08 07:46:55;;;;;;;;;;;;;;;14.80;100.00;98496.12;1724176;80;21212;-86
2022/10/08 07:49:21;;;;;;;;;;;;;;;14.88;100.00;98491.05;1725500;80;26361;-85
2022/10/08 07:51:48;;;;;;;;;;;;;;;14.97;100.00;98493.71;1728304;80;20160;-85
2022/10/08 07:54:15;;;;;;;;;;;;;;;15.06;100.00;98498.17;1729880;80;20247;-89
2022/10/08 07:56:42;;;;;;;;;;;;;;;15.19;100.00;98495.79;1664181;83;20209;-88
2022/10/08 07:59:08;;;;;;;;;;;;;;;15.30;100.00;98498.31;1695931;82;21014;-89
2022/10/08 08:01:34;;;;;;;;;;;;;;;15.40;100.00;98492.09;1694439;81;20802;-86
2022/10/08 08:04:10;;;;;;;;;;;;;;;15.46;100.00;98490.72;1685730;83;20258;-86
2022/10/08 08:06:43;;;;;;;;;;;;;;;15.57;100.00;98501.66;1679903;83;24629;-86
2022/10/08 08:09:09;;;;;;;;;;;;;;;15.65;100.00;98497.39;1684894;83;22769;-85
2022/10/08 08:11:39;;;;;;;;;;;;;;;15.76;100.00;98499.91;1668814;84;26196;-85
2022/10/08 08:14:06;;;;;;;;;;;;;;;15.80;100.00;98496.48;1668825;84;25339;-89
2022/10/08 08:16:34;;;;;;;;;;;;;;;15.84;100.00;98493.91;1686513;82;20231;-89
2022/10/08 08:19:05;;;;;;;;;;;;;;;15.91;100.00;98496.36;1700967;82;24502;-85
2022/10/08 08:21:32;;;;;;;;;;;;;;;15.97;100.00;98498.44;1664466;83;22004;-86
2022/10/08 08:24:00;;;;;;;;;;;;;;;16.05;100.00;98497.73;1695490;82;26026;-87
2022/10/08 08:26:27;;;;;;;;;;;;;;;16.12;100.00;98496.20;1646479;84;23928;-88
2022/10/08 08:28:54;;;;;;;;;;;;;;;16.18;100.00;98496.48;1678035;83;20255;-84
2022/10/08 08:31:22;;;;;;;;;;;;;;;16.27;100.00;98496.11;1683661;82;24636;-85
2022/10/08 08:33:49;;;;;;;;;;;;;;;16.30;100.00;98496.68;1689394;83;22097;-89
2022/10/08 08:36:17;;;;;;;;;;;;;;;16.37;100.00;98496.08;1684750;82;27128;-88
2022/10/08 08:38:43;;;;;;;;;;;;;;;16.47;100.00;98495.12;1666602;84;24495;-87
2022/10/08 08:41:21;;;;;;;;;;;;;;;16.54;100.00;98494.88;1694890;83;20532;-87
2022/10/08 08:43:47;;;;;;;;;;;;;;;16.66;100.00;98500.86;1673008;82;24533;-87
2022/10/08 08:46:15;;;;;;;;;;;;;;;16.77;100.00;98494.56;1720577;80;22111;-88
2022/10/08 08:48:42;;;;;;;;;;;;;;;16.84;100.00;98493.85;1723662;80;26057;-89
2022/10/08 08:51:09;;;;;;;;;;;;;;;16.92;100.00;98489.98;1678174;82;24693;-87
2022/10/08 08:53:35;;;;;;;;;;;;;;;17.00;100.00;98498.03;1691235;82;20388;-87
2022/10/08 08:56:02;;;;;;;;;;;;;;;17.03;100.00;98492.44;1683658;82;20294;-87
2022/10/08 08:58:44;;;;;;;;;;;;;;;17.09;100.00;98490.53;1685282;82;21263;-87
2022/10/08 09:01:15;;;;;;;;;;;;;;;17.16;100.00;98486.81;1684938;82;26000;-87
2022/10/08 09:03:50;;;;;;;;;;;;;;;17.25;100.00;98490.38;1670897;82;24312;-87
2022/10/08 09:06:18;;;;;;;;;;;;;;;17.33;100.00;98487.84;1685481;82;20208;-87
2022/10/08 09:08:50;;;;;;;;;;;;;;;17.40;100.00;98482.31;1679545;83;25307;-87
2022/10/08 09:11:20;;;;;;;;;;;;;;;17.48;100.00;98479.24;1694083;82;22030;-87
2022/10/08 09:13:48;;;;;;;;;;;;;;;17.56;100.00;98487.77;1679122;82;26090;-85
2022/10/08 09:16:14;;;;;;;;;;;;;;;17.68;100.00;98483.94;1687378;81;24594;-85
2022/10/08 09:18:45;;;;;;;;;;;;;;;17.79;100.00;98486.84;1695540;83;20297;-85
2022/10/08 09:21:11;;;;;;;;;;;;;;;17.88;100.00;98481.50;1690726;83;25474;-86
2022/10/08 09:23:37;;;;;;;;;;;;;;;18.01;100.00;98483.74;1690104;82;20351;-87
2022/10/08 09:26:21;;;;;;;;;;;;;;;18.12;100.00;98477.37;1682625;83;21769;-88
2022/10/08 09:28:48;;;;;;;;;;;;;;;18.21;100.00;98475.98;1647807;83;24904;-88
2022/10/08 09:31:29;;;;;;;;;;;;;;;18.34;100.00;98476.88;1682509;83;20557;-88
2022/10/08 09:33:56;;;;;;;;;;;;;;;18.46;100.00;98471.67;1684880;83;24646;-88
2022/10/08 09:36:36;;;;;;;;;;;;;;;18.60;100.00;98484.37;1688431;82;22850;-84
2022/10/08 09:39:04;;;;;;;;;;;;;;;18.64;100.00;98480.94;1676663;83;26132;-85
2022/10/08 09:41:30;;;;;;;;;;;;;;;18.64;100.00;98475.64;1681907;82;25410;-86
2022/10/08 09:44:07;;;;;;;;;;;;;;;18.70;100.00;98477.17;1677757;83;20274;-86
2022/10/08 09:46:33;;;;;;;;;;;;;;;18.70;100.00;98469.22;1688685;82;24644;-87
2022/10/08 09:49:18;;;;;;;;;;;;;;;18.73;100.00;98469.37;1692647;82;20244;-87
2022/10/08 09:51:43;;;;;;;;;;;;;;;18.76;100.00;98475.19;1670587;84;26165;-91
2022/10/08 09:54:14;;;;;;;;;;;;;;;18.77;100.00;98474.20;1695491;82;24495;-86
2022/10/08 09:56:45;;;;;;;;;;;;;;;18.78;100.00;98471.06;1690115;82;20278;-87
2022/10/08 09:59:13;;;;;;;;;;;;;;;18.76;100.00;98475.19;1692211;81;24585;-86
2022/10/08 10:01:41;;;;;;;;;;;;;;;18.72;100.00;98465.89;1684447;83;22085;-90
2022/10/08 10:04:09;;;;;;;;;;;;;;;18.72;100.00;98466.39;1716364;80;26044;-88
2022/10/08 10:06:36;;;;;;;;;;;;;;;18.77;100.00;98468.06;1708088;81;24634;-88
2022/10/08 10:09:07;;;;;;;;;;;;;;;18.79;100.00;98466.94;1713976;82;20212;-87
2022/10/08 10:11:41;;;;;;;;;;;;;;;18.75;100.00;98464.77;1719769;80;24545;-86
2022/10/08 10:14:15;;;;;;;;;;;;;;;18.73;100.00;98469.37;1671772;83;22019;-83
2022/10/08 10:16:43;;;;;;;;;;;;;;;18.66;100.00;98467.02;1654591;83;26122;-89
2022/10/08 10:19:15;;;;;;;;;;;;;;;18.63;100.00;98469.99;1658816;84;24493;-88
2022/10/08 10:21:43;;;;;;;;;;;;;;;18.64;100.00;98467.19;1694489;83;20750;-88
2022/10/08 10:24:16;;;;;;;;;;;;;;;18.67;100.00;98463.38;1691432;82;24550;-87
2022/10/08 10:26:43;;;;;;;;;;;;;;;18.71;100.00;98461.58;1696117;81;22086;-89
2022/10/08 10:29:14;;;;;;;;;;;;;;;18.75;100.00;98460.30;1686763;81;25982;-84
2022/10/08 10:31:47;;;;;;;;;;;;;;;18.76;100.00;98457.95;1658896;83;25865;-85
2022/10/08 10:34:20;;;;;;;;;;;;;;;18.70;100.00;98461.75;1663053;84;20181;-84
2022/10/08 10:37:00;;;;;;;;;;;;;;;18.68;100.00;98457.92;1686242;82;25273;-88
2022/10/08 10:39:44;;;;;;;;;;;;;;;18.71;100.00;98453.63;1722714;80;22049;-90
2022/10/08 10:42:11;;;;;;;;;;;;;;;18.73;100.00;98452.98;1701546;81;26854;-87
2022/10/08 10:44:42;;;;;;;;;;;;;;;18.73;100.00;98454.30;1726319;81;23984;-88
2022/10/08 10:47:08;;;;;;;;;;;;;;;18.74;100.00;98452.00;1718498;81;20197;-86
2022/10/08 10:49:37;;;;;;;;;;;;;;;18.76;100.00;98454.50;1685977;82;24598;-86
2022/10/08 10:52:22;;;;;;;;;;;;;;;18.77;100.00;98444.20;1682524;82;21957;-90
2022/10/08 10:54:53;;;;;;;;;;;;;;;18.82;100.00;98450.39;1672865;84;26747;-86
2022/10/08 10:57:30;;;;;;;;;;;;;;;18.84;100.00;98451.04;1671895;82;24466;-84
2022/10/08 11:00:10;;;;;;;;;;;;;;;18.85;100.00;98442.93;1679116;83;20178;-84
2022/10/08 11:02:44;;;;;;;;;;;;;;;18.90;100.00;98442.45;1659956;83;25090;-84
2022/10/08 11:05:12;;;;;;;;;;;;;;;18.90;100.00;98441.96;1681745;82;22104;-86
2022/10/08 11:07:55;;;;;;;;;;;;;;;18.94;100.00;98441.13;1687815;83;26237;-89
2022/10/08 11:10:24;;;;;;;;;;;;;;;18.98;100.00;98441.17;1670957;84;24538;-86
2022/10/08 11:13:09;;;;;;;;;;;;;;;19.02;100.00;98439.86;1670689;83;20166;-85
2022/10/08 11:15:56;;;;;;;;;;;;;;;19.07;100.00;98443.69;1701748;82;24857;-91
2022/10/08 11:18:33;;;;;;;;;;;;;;;19.14;100.00;98436.76;1685577;83;21995;-87
2022/10/08 11:21:07;;;;;;;;;;;;;;;19.16;100.00;98427.29;1683987;82;26096;-89
2022/10/08 11:23:50;;;;;;;;;;;;;;;19.16;100.00;98425.96;1651318;84;24530;-88
2022/10/08 11:26:18;;;;;;;;;;;;;;;19.15;100.00;98430.93;1680152;81;20486;-86
2022/10/08 11:28:46;;;;;;;;;;;;;;;19.17;100.00;98424.48;1687741;83;24920;-86
2022/10/08 11:31:13;;;;;;;;;;;;;;;19.20;100.00;98426.00;1687552;82;22066;-88
2022/10/08 11:33:41;;;;;;;;;;;;;;;19.21;100.00;98426.31;1690740;82;26831;-89
2022/10/08 11:36:29;;;;;;;;;;;;;;;19.21;100.00;98420.51;1684760;83;24705;-89
2022/10/08 11:39:10;;;;;;;;;;;;;;;19.22;100.00;98420.85;1686117;83;20348;-86
2022/10/08 11:41:55;;;;;;;;;;;;;;;19.19;100.00;98411.90;1664690;83;24953;-86
2022/10/08 11:44:21;;;;;;;;;;;;;;;19.21;100.00;98414.37;1708170;80;22029;-85
2022/10/08 11:46:47;;;;;;;;;;;;;;;19.25;100.00;98407.77;1707926;82;20934;-86
2022/10/08 11:49:14;;;;;;;;;;;;;;;19.25;100.00;98402.46;1719794;80;20355;-84
2022/10/08 11:51:51;;;;;;;;;;;;;;;19.28;100.00;98406.59;1722159;81;20288;-90
2022/10/08 11:54:33;;;;;;;;;;;;;;;19.29;100.00;98409.59;1715185;80;24927;-85
2022/10/08 11:57:17;;;;;;;;;;;;;;;19.29;100.00;98402.95;1700008;82;22010;-86
2022/10/08 11:59:45;;;;;;;;;;;;;;;19.30;100.00;98404.62;1693995;82;26098;-89
2022/10/08 12:02:31;;;;;;;;;;;;;;;19.33;100.00;98398.48;1661848;83;24533;-88
2022/10/08 12:04:59;;;;;;;;;;;;;;;19.39;100.00;98399.66;1690088;82;20404;-88
2022/10/08 12:07:39;;;;;;;;;;;;;;;19.41;100.00;98391.05;1686528;83;24940;-86
2022/10/08 12:10:07;;;;;;;;;;;;;;;19.39;100.00;98385.89;1668179;83;22084;-87
2022/10/08 12:12:51;;;;;;;;;;;;;;;19.38;100.00;98386.88;1667115;83;25861;-84
2022/10/08 12:15:26;;;;;;;;;;;;;;;19.40;100.00;98388.88;1686596;82;24421;-86
2022/10/08 12:18:03;;;;;;;;;;;;;;;19.39;100.00;98387.22;1696740;82;20315;-85
2022/10/08 12:20:33;;;;;;;;;;;;;;;19.37;100.00;98388.36;1693825;82;24918;-86
2022/10/08 12:23:10;;;;;;;;;;;;;;;19.39;100.00;98384.56;1688107;82;22322;-86
2022/10/08 12:25:42;;;;;;;;;;;;;;;19.41;100.00;98380.42;1677491;82;26117;-84
2022/10/08 12:28:22;;;;;;;;;;;;;;;19.45;100.00;98383.11;1673264;82;25330;-89
2022/10/08 12:30:57;;;;;;;;;;;;;;;19.44;100.00;98375.61;1653156;84;20243;-90
2022/10/08 12:33:23;;;;;;;;;;;;;;;19.41;100.00;98373.30;1690299;83;24922;-86
2022/10/08 12:35:51;;;;;;;;;;;;;;;19.42;100.00;98382.89;1681039;82;20325;-85
2022/10/08 12:38:19;;;;;;;;;;;;;;;19.41;100.00;98380.42;1682514;82;26165;-86
2022/10/08 12:40:46;;;;;;;;;;;;;;;19.42;100.00;98385.55;1678765;82;24464;-89
2022/10/08 12:43:31;;;;;;;;;;;;;;;19.44;100.00;98382.24;1697017;82;20313;-90
2022/10/08 12:46:17;;;;;;;;;;;;;;;19.50;100.00;98380.30;1718302;81;25553;-88
2022/10/08 12:48:45;;;;;;;;;;;;;;;19.56;100.00;98377.48;1689116;82;22083;-86
2022/10/08 12:51:22;;;;;;;;;;;;;;;19.61;100.00;98380.47;1690953;83;25967;-85
2022/10/08 12:53:48;;;;;;;;;;;;;;;19.64;100.00;98385.44;1683841;83;24530;-88
2022/10/08 12:56:16;;;;;;;;;;;;;;;19.67;100.00;98376.32;1677015;82;20216;-89